createdAt,value
2022-08-04T00:00:00.688Z,52.80
2022-08-04T00:02:52.495Z,53.08
2022-08-04T00:05:34.918Z,53.71
2022-08-04T00:08:27.874Z,53.03
2022-08-04T00:11:01.166Z,53.30
2022-08-04T00:13:33.436Z,53.61
2022-08-04T00:16:08.221Z,53.71
2022-08-04T00:18:54.298Z,54.18
2022-08-04T00:21:26.507Z,54.36
2022-08-04T00:24:10.716Z,54.38
2022-08-04T00:26:42.680Z,54.31
2022-08-04T00:29:12.217Z,54.67
2022-08-04T00:31:54.774Z,54.98
2022-08-04T00:34:29.618Z,54.78
2022-08-04T00:37:00.150Z,54.42
2022-08-04T00:39:32.142Z,54.87
2022-08-04T00:42:34.441Z,54.92
2022-08-04T00:45:31.183Z,55.01
2022-08-04T00:48:38.789Z,54.82
2022-08-04T00:51:24.918Z,55.18
2022-08-04T00:54:12.656Z,55.71
2022-08-04T00:57:04.342Z,55.44
2022-08-04T01:00:02.214Z,55.88
2022-08-04T01:02:40.973Z,55.57
2022-08-04T01:05:22.903Z,55.96
2022-08-04T01:08:26.012Z,56.23
2022-08-04T01:11:10.306Z,56.56
2022-08-04T01:14:07.048Z,56.60
2022-08-04T01:16:49.458Z,56.52
2022-08-04T01:19:55.441Z,56.61
2022-08-04T01:23:18.126Z,56.62
2022-08-04T01:26:42.496Z,57.24
2022-08-04T01:29:15.036Z,57.11
2022-08-04T01:32:01.231Z,56.93
2022-08-04T01:34:37.783Z,56.93
2022-08-04T01:37:19.165Z,57.40
2022-08-04T01:39:58.056Z,57.50
2022-08-04T01:42:32.130Z,57.59
2022-08-04T01:45:08.643Z,57.62
2022-08-04T01:47:41.645Z,57.60
2022-08-04T01:50:13.747Z,57.52
2022-08-04T01:52:50.709Z,57.40
2022-08-04T01:55:22.001Z,57.99
2022-08-04T01:57:54.562Z,58.28
2022-08-04T02:00:28.039Z,57.99
2022-08-04T02:02:58.313Z,57.93
2022-08-04T02:06:02.509Z,57.67
2022-08-04T02:08:29.219Z,58.14
2022-08-04T02:11:11.349Z,58.18
2022-08-04T02:13:56.077Z,57.91
2022-08-04T02:16:42.513Z,58.28
2022-08-04T02:22:09.947Z,58.14
2022-08-04T02:24:50.532Z,58.54
2022-08-04T02:28:00.066Z,58.33
2022-08-04T02:30:20.672Z,59.21
2022-08-04T02:32:56.528Z,59.05
2022-08-04T02:35:28.885Z,58.74
2022-08-04T02:38:12.611Z,59.67
2022-08-04T02:40:44.170Z,59.35
2022-08-04T02:43:16.577Z,59.58
2022-08-04T02:46:17.531Z,59.66
2022-08-04T02:48:51.431Z,60.08
2022-08-04T02:51:25.684Z,59.89
2022-08-04T02:53:57.658Z,60.04
2022-08-04T02:56:30.387Z,59.86
2022-08-04T02:59:03.274Z,60.32
2022-08-04T03:01:33.532Z,59.93
2022-08-04T03:04:42.804Z,60.26
2022-08-04T03:08:00.951Z,60.37
2022-08-04T03:11:26.081Z,60.18
2022-08-04T03:14:29.699Z,59.76
2022-08-04T03:17:53.143Z,59.51
2022-08-04T03:21:08.108Z,59.83
2022-08-04T03:24:20.583Z,59.92
2022-08-04T03:27:13.482Z,60.27
2022-08-04T03:30:14.545Z,60.18
2022-08-04T03:33:25.757Z,60.13
2022-08-04T03:36:36.538Z,60.30
2022-08-04T03:39:42.073Z,60.72
2022-08-04T03:42:56.239Z,60.49
2022-08-04T03:46:16.628Z,60.75
2022-08-04T03:49:26.136Z,61.03
2022-08-04T03:52:28.215Z,60.64
2022-08-04T03:55:40.159Z,61.22
2022-08-04T03:59:06.899Z,61.10
2022-08-04T04:02:28.573Z,61.07
2022-08-04T04:05:33.598Z,61.16
2022-08-04T04:09:04.160Z,61.27
2022-08-04T04:12:19.213Z,61.27
2022-08-04T04:15:20.555Z,61.43
2022-08-04T04:18:42.428Z,61.37
2022-08-04T04:21:35.658Z,61.31
2022-08-04T04:24:45.716Z,61.11
2022-08-04T04:27:39.613Z,61.40
2022-08-04T04:30:13.714Z,61.84
2022-08-04T04:33:09.119Z,61.75
2022-08-04T04:35:47.988Z,61.45
2022-08-04T04:38:40.186Z,61.43
2022-08-04T04:41:38.256Z,61.66
2022-08-04T04:44:42.365Z,62.13
2022-08-04T04:47:43.113Z,62.18
2022-08-04T04:50:33.652Z,62.46
2022-08-04T04:53:18.935Z,62.47
2022-08-04T04:55:57.858Z,61.93
2022-08-04T04:58:34.291Z,62.18
2022-08-04T05:01:58.323Z,62.43
2022-08-04T05:05:26.665Z,62.24
2022-08-04T05:08:58.266Z,62.56
2022-08-04T05:14:32.126Z,62.88
2022-08-04T05:15:15.496Z,62.72
2022-08-04T05:18:00.531Z,62.93
2022-08-04T05:20:37.260Z,62.55
2022-08-04T05:23:19.542Z,62.77
2022-08-04T05:25:59.093Z,63.19
2022-08-04T05:28:35.891Z,63.23
2022-08-04T05:31:13.274Z,62.88
2022-08-04T05:33:49.966Z,63.36
2022-08-04T05:36:39.888Z,63.03
2022-08-04T05:39:23.477Z,62.87
2022-08-04T05:41:55.156Z,62.75
2022-08-04T05:44:29.557Z,63.28
2022-08-04T05:47:01.266Z,62.78
2022-08-04T05:49:34.144Z,62.49
2022-08-04T05:52:08.999Z,62.50
2022-08-04T05:54:40.168Z,62.47
2022-08-04T05:57:12.514Z,62.38
2022-08-04T05:59:46.765Z,62.23
2022-08-04T06:02:19.622Z,61.71
2022-08-04T06:04:53.481Z,61.52
2022-08-04T06:07:22.861Z,61.91
2022-08-04T06:09:51.752Z,61.74
2022-08-04T06:12:26.688Z,61.51
2022-08-04T06:14:59.895Z,61.49
2022-08-04T06:18:32.959Z,61.22
2022-08-04T06:20:32.822Z,61.33
2022-08-04T06:23:10.139Z,60.98
2022-08-04T06:25:58.148Z,60.59
2022-08-04T06:28:29.418Z,61.04
2022-08-04T06:32:27.250Z,60.63
2022-08-04T06:33:56.283Z,60.68
2022-08-04T06:36:26.592Z,60.21
2022-08-04T06:38:58.469Z,60.16
2022-08-04T06:41:30.168Z,60.23
2022-08-04T06:44:05.268Z,60.06
2022-08-04T06:46:36.622Z,60.20
2022-08-04T06:49:07.828Z,59.39
2022-08-04T06:51:49.005Z,58.73
2022-08-04T06:54:18.423Z,59.25
2022-08-04T06:56:49.625Z,59.33
2022-08-04T06:59:20.937Z,58.94
2022-08-04T07:01:51.334Z,59.33
2022-08-04T07:04:22.005Z,59.02
2022-08-04T07:06:51.022Z,59.05
2022-08-04T07:09:20.201Z,59.16
2022-08-04T07:11:50.849Z,58.38
2022-08-04T07:14:21.443Z,58.07
2022-08-04T07:16:52.203Z,57.81
2022-08-04T07:19:22.419Z,57.43
2022-08-04T07:22:18.812Z,57.43
2022-08-04T07:24:43.539Z,57.58
2022-08-04T07:27:13.172Z,56.90
2022-08-04T07:29:42.811Z,55.51
2022-08-04T07:32:13.799Z,53.59
2022-08-04T07:34:49.786Z,52.31
2022-08-04T07:37:19.715Z,52.49
2022-08-04T07:39:49.240Z,51.31
2022-08-04T07:42:21.485Z,50.64
2022-08-04T07:44:50.617Z,48.88
2022-08-04T07:47:25.245Z,47.22
2022-08-04T07:49:58.002Z,46.09
2022-08-04T07:52:28.665Z,45.17
2022-08-04T07:54:58.064Z,43.56
2022-08-04T07:57:41.712Z,42.25
2022-08-04T08:00:15.033Z,42.04
2022-08-04T08:02:49.532Z,40.06
2022-08-04T08:05:22.023Z,40.86
2022-08-04T08:07:54.517Z,39.85
2022-08-04T08:10:31.066Z,38.84
2022-08-04T08:13:00.258Z,38.70
2022-08-04T08:15:29.220Z,38.45
2022-08-04T08:18:00.497Z,38.31
2022-08-04T08:20:33.336Z,36.56
2022-08-04T08:23:04.264Z,33.84
2022-08-04T08:25:34.696Z,35.37
2022-08-04T08:28:06.112Z,35.96
2022-08-04T08:30:35.632Z,35.61
2022-08-04T08:33:10.823Z,34.58
2022-08-04T08:35:54.994Z,34.96
2022-08-04T08:38:41.954Z,34.64
2022-08-04T08:42:03.674Z,34.04
2022-08-04T08:45:22.637Z,34.03
2022-08-04T08:48:15.330Z,33.06
2022-08-04T08:51:28.852Z,33.56
2022-08-04T08:54:31.105Z,33.08
2022-08-04T08:57:24.205Z,32.49
2022-08-04T09:00:11.314Z,30.63
2022-08-04T09:03:40.202Z,30.85
2022-08-04T09:06:49.989Z,32.83
2022-08-04T09:10:01.629Z,33.25
2022-08-04T09:12:42.702Z,34.45
2022-08-04T09:15:20.196Z,34.40
2022-08-04T09:17:55.522Z,34.56
2022-08-04T09:20:36.695Z,33.85
2022-08-04T09:23:25.245Z,34.64
2022-08-04T09:26:12.624Z,35.56
2022-08-04T09:28:55.136Z,34.34
2022-08-04T09:31:51.324Z,33.63
2022-08-04T09:34:40.658Z,32.92
2022-08-04T09:37:23.754Z,32.21
2022-08-04T09:40:06.085Z,32.11
2022-08-04T09:42:51.463Z,32.20
2022-08-04T09:45:42.470Z,31.97
2022-08-04T09:48:21.642Z,32.21
2022-08-04T09:51:00.209Z,32.24
2022-08-04T09:53:56.602Z,30.40
2022-08-04T09:56:39.551Z,31.44
2022-08-04T09:59:25.275Z,32.12
2022-08-04T10:02:00.492Z,32.39
2022-08-04T10:04:33.321Z,33.92
2022-08-04T10:07:26.221Z,33.63
2022-08-04T10:10:19.189Z,32.80
2022-08-04T10:13:19.685Z,33.58
2022-08-04T10:16:02.264Z,32.88
2022-08-04T10:18:57.680Z,33.54
2022-08-04T10:22:29.151Z,34.22
2022-08-04T10:26:03.706Z,34.39
2022-08-04T10:28:07.603Z,34.66
2022-08-04T10:30:41.869Z,34.21
2022-08-04T10:33:19.564Z,32.92
2022-08-04T10:35:55.293Z,32.81
2022-08-04T10:38:40.810Z,32.88
2022-08-04T10:41:18.944Z,34.17
2022-08-04T10:44:13.812Z,34.02
2022-08-04T10:46:51.030Z,35.28
2022-08-04T10:49:29.482Z,35.28
2022-08-04T10:52:16.795Z,34.92
2022-08-04T10:54:55.782Z,34.41
2022-08-04T10:57:34.364Z,34.99
2022-08-04T11:00:09.238Z,35.88
2022-08-04T11:02:52.749Z,36.14
2022-08-04T11:05:34.371Z,35.08
2022-08-04T11:08:21.565Z,32.83
2022-08-04T11:11:02.309Z,33.48
2022-08-04T11:13:40.967Z,34.83
2022-08-04T11:16:28.600Z,34.21
2022-08-04T11:19:12.018Z,33.19
2022-08-04T11:21:49.328Z,33.13
2022-08-04T11:24:26.522Z,32.70
2022-08-04T11:27:02.269Z,31.52
2022-08-04T11:29:42.299Z,30.59
2022-08-04T11:32:21.109Z,31.23
2022-08-04T11:34:58.921Z,31.80
2022-08-04T11:37:43.968Z,32.68
2022-08-04T11:40:24.394Z,30.45
2022-08-04T11:43:02.485Z,31.14
2022-08-04T11:45:39.212Z,32.11
2022-08-04T11:48:18.034Z,33.34
2022-08-04T11:50:54.142Z,32.57
2022-08-04T11:53:36.485Z,33.29
2022-08-04T11:56:13.516Z,30.01
2022-08-04T11:58:50.358Z,28.36
2022-08-04T12:01:30.330Z,28.18
2022-08-04T12:04:15.213Z,27.67
2022-08-04T12:07:04.512Z,25.80
2022-08-04T12:09:53.744Z,25.92
2022-08-04T12:12:36.165Z,26.09
2022-08-04T12:15:21.071Z,24.88
2022-08-04T12:18:05.857Z,25.99
2022-08-04T12:20:49.683Z,27.01
2022-08-04T12:23:26.273Z,24.94
2022-08-04T12:26:04.220Z,24.82
2022-08-04T12:29:07.322Z,24.91
2022-08-04T12:31:36.592Z,24.95
2022-08-04T12:34:14.252Z,24.05
2022-08-04T12:36:57.255Z,24.39
2022-08-04T12:39:29.838Z,23.89
2022-08-04T12:42:10.101Z,23.85
2022-08-04T12:44:42.353Z,22.76
2022-08-04T12:47:27.005Z,22.71
2022-08-04T12:50:04.067Z,22.70
2022-08-04T12:53:08.477Z,22.32
2022-08-04T12:55:38.296Z,22.75
2022-08-04T12:58:42.232Z,22.42
2022-08-04T13:02:11.310Z,22.69
2022-08-04T13:04:14.581Z,21.60
2022-08-04T13:06:45.862Z,22.49
2022-08-04T13:09:22.321Z,22.87
2022-08-04T13:11:56.929Z,23.19
2022-08-04T13:14:33.600Z,23.85
2022-08-04T13:17:04.620Z,24.06
2022-08-04T13:19:41.526Z,24.05
2022-08-04T13:22:12.188Z,25.98
2022-08-04T13:24:57.025Z,26.64
2022-08-04T13:27:48.428Z,26.76
2022-08-04T13:30:23.010Z,26.34
2022-08-04T13:32:59.134Z,27.36
2022-08-04T13:35:55.987Z,27.03
2022-08-04T13:38:22.237Z,28.64
2022-08-04T13:40:54.367Z,28.88
2022-08-04T13:44:15.694Z,28.88
2022-08-04T13:46:28.699Z,29.38
2022-08-04T13:51:59.082Z,26.69
2022-08-04T13:54:36.512Z,24.50
2022-08-04T13:57:20.994Z,22.77
2022-08-04T13:59:54.793Z,25.43
2022-08-04T14:02:35.434Z,25.76
2022-08-04T14:05:18.492Z,25.21
2022-08-04T14:07:55.657Z,23.89
2022-08-04T14:10:25.688Z,23.72
2022-08-04T14:12:56.997Z,21.12
2022-08-04T14:16:02.397Z,20.66
2022-08-04T14:18:29.738Z,19.49
2022-08-04T14:21:06.920Z,17.83
2022-08-04T14:23:47.478Z,18.01
2022-08-04T14:26:20.864Z,19.05
2022-08-04T14:29:27.421Z,19.04
2022-08-04T14:32:14.617Z,17.83
2022-08-04T14:34:46.707Z,18.59
2022-08-04T14:37:20.734Z,17.09
2022-08-04T14:40:17.572Z,16.77
2022-08-04T14:42:43.881Z,14.89
2022-08-04T14:45:15.969Z,14.52
2022-08-04T14:47:52.103Z,14.48
2022-08-04T14:50:34.021Z,15.32
2022-08-04T14:53:07.393Z,15.06
2022-08-04T14:55:36.868Z,15.05
2022-08-04T14:58:32.563Z,15.09
2022-08-04T15:01:00.066Z,14.58
2022-08-04T15:03:30.649Z,14.39
2022-08-04T15:06:08.030Z,14.79
2022-08-04T15:08:43.298Z,14.75
2022-08-04T15:11:23.084Z,17.39
2022-08-04T15:13:52.814Z,16.16
2022-08-04T15:16:25.775Z,17.09
2022-08-04T15:18:56.791Z,18.28
2022-08-04T15:21:29.235Z,20.49
2022-08-04T15:23:59.101Z,20.54
2022-08-04T15:26:40.646Z,20.61
2022-08-04T15:29:18.495Z,20.87
2022-08-04T15:32:07.906Z,22.06
2022-08-04T15:34:49.060Z,21.97
2022-08-04T15:37:26.915Z,23.71
2022-08-04T15:40:05.635Z,24.63
2022-08-04T15:42:43.181Z,25.63
2022-08-04T15:46:34.956Z,25.15
2022-08-04T15:48:36.654Z,25.78
2022-08-04T15:51:14.648Z,26.01
2022-08-04T15:54:30.820Z,25.78
2022-08-04T15:57:03.695Z,25.92
2022-08-04T16:00:03.023Z,24.42
2022-08-04T16:02:44.457Z,22.07
2022-08-04T16:05:43.785Z,25.52
2022-08-04T16:08:22.355Z,25.77
2022-08-04T16:10:52.916Z,27.00
2022-08-04T17:50:43.408Z,33.53
2022-08-04T17:53:13.426Z,33.53
2022-08-04T17:55:49.582Z,34.29
2022-08-04T17:58:22.142Z,33.95
2022-08-04T18:01:22.622Z,34.18
2022-08-04T18:03:53.340Z,34.65
2022-08-04T18:06:26.054Z,34.90
2022-08-04T18:09:22.798Z,34.77
2022-08-04T18:11:58.751Z,35.22
2022-08-04T18:14:31.101Z,35.44
2022-08-04T18:16:59.939Z,35.40
2022-08-04T18:19:31.417Z,36.02
2022-08-04T18:22:01.855Z,35.43
2022-08-04T18:24:35.544Z,35.54
2022-08-04T18:27:26.007Z,36.06
2022-08-04T18:30:33.855Z,36.33
2022-08-04T18:33:24.682Z,37.01
2022-08-04T18:36:32.467Z,36.95
2022-08-04T18:38:30.702Z,36.62
2022-08-04T18:40:59.604Z,36.70
2022-08-04T18:46:17.325Z,36.38
2022-08-04T18:48:52.185Z,36.24
2022-08-04T18:51:25.261Z,36.32
2022-08-04T18:54:01.902Z,36.77
2022-08-04T18:56:34.004Z,36.96
2022-08-04T18:59:10.028Z,37.34
2022-08-04T19:02:13.662Z,37.31
2022-08-04T19:04:32.463Z,37.77
2022-08-04T19:07:23.309Z,38.10
2022-08-04T19:09:57.819Z,37.82
2022-08-04T19:12:29.134Z,38.28
2022-08-04T19:15:10.331Z,38.19
2022-08-04T19:17:57.373Z,38.90
2022-08-04T19:20:31.441Z,39.25
2022-08-04T19:24:30.463Z,39.04
2022-08-04T19:26:02.610Z,39.66
2022-08-04T19:28:37.246Z,39.57
2022-08-04T19:31:09.479Z,39.51
2022-08-04T19:33:58.276Z,39.82
2022-08-04T19:36:32.575Z,40.04
2022-08-04T19:39:11.603Z,40.00
2022-08-04T19:42:04.741Z,40.28
2022-08-04T19:44:31.224Z,40.37
2022-08-04T19:47:02.500Z,40.12
2022-08-04T19:50:04.946Z,40.52
2022-08-04T19:52:40.299Z,40.63
2022-08-04T19:55:22.871Z,40.57
2022-08-04T19:58:10.558Z,40.55
2022-08-04T20:00:44.677Z,41.08
2022-08-04T20:03:21.069Z,41.11
2022-08-04T20:05:54.821Z,41.21
2022-08-04T20:08:25.199Z,41.37
2022-08-04T20:10:54.915Z,41.66
2022-08-04T20:13:37.152Z,41.60
2022-08-04T20:16:20.214Z,41.70
2022-08-04T20:21:55.232Z,42.15
2022-08-04T20:24:44.185Z,42.49
2022-08-04T20:27:19.396Z,42.54
2022-08-04T20:29:55.566Z,42.78
2022-08-04T20:32:26.531Z,42.88
2022-08-04T20:34:57.624Z,43.12
2022-08-04T20:37:29.045Z,43.25
2022-08-04T20:40:17.670Z,43.54
2022-08-04T20:42:48.156Z,43.86
2022-08-04T20:45:18.451Z,43.58
2022-08-04T20:47:54.306Z,43.85
2022-08-04T20:50:30.155Z,43.80
2022-08-04T20:52:59.498Z,43.93
2022-08-04T20:55:29.644Z,44.17
2022-08-04T20:58:02.484Z,44.02
2022-08-04T21:00:33.763Z,44.09
2022-08-04T21:03:03.284Z,44.04
2022-08-04T21:05:32.521Z,44.37
2022-08-04T21:08:01.845Z,44.38
2022-08-04T21:10:30.977Z,44.50
2022-08-04T21:12:59.994Z,44.41
2022-08-04T21:15:58.567Z,44.49
2022-08-04T21:18:18.906Z,44.35
2022-08-04T21:20:58.083Z,44.11
2022-08-04T21:23:26.985Z,44.44
2022-08-04T21:26:01.939Z,44.45
2022-08-04T21:28:31.330Z,44.55
2022-08-04T21:31:02.558Z,44.47
2022-08-04T21:33:50.603Z,45.13
2022-08-04T21:36:21.290Z,44.80
2022-08-04T21:38:52.485Z,44.84
2022-08-04T21:41:24.837Z,45.03
2022-08-04T21:43:56.604Z,45.53
2022-08-04T21:46:30.075Z,45.53
2022-08-04T21:49:01.396Z,45.77
2022-08-04T21:51:59.150Z,45.82
2022-08-04T21:54:24.006Z,46.38
2022-08-04T21:56:52.814Z,46.37
2022-08-04T21:59:24.010Z,46.44
2022-08-04T22:02:01.797Z,46.43
2022-08-04T22:04:32.446Z,46.49
2022-08-04T22:07:02.975Z,46.72
2022-08-04T22:09:41.046Z,46.80
2022-08-04T22:12:12.448Z,46.75
2022-08-04T22:14:42.246Z,46.98
2022-08-04T22:17:19.058Z,46.90
2022-08-04T22:19:54.968Z,47.27
2022-08-04T22:22:27.216Z,47.39
2022-08-04T22:25:12.611Z,47.45
2022-08-04T22:28:03.685Z,47.26
2022-08-04T22:30:36.801Z,47.32
2022-08-04T22:33:08.850Z,47.41
2022-08-04T22:35:48.786Z,47.54
2022-08-04T22:38:29.014Z,47.50
2022-08-04T22:41:10.168Z,47.55
2022-08-04T22:43:40.345Z,47.30
2022-08-04T22:46:12.957Z,47.62
2022-08-04T22:48:45.071Z,47.35
2022-08-04T22:51:15.195Z,47.40
2022-08-04T22:53:48.914Z,47.61
2022-08-04T22:56:38.002Z,47.53
2022-08-04T22:59:11.343Z,47.61
2022-08-04T23:01:58.694Z,47.74
2022-08-04T23:04:32.427Z,47.42
2022-08-04T23:07:09.554Z,47.18
2022-08-04T23:09:50.895Z,47.39
2022-08-04T23:12:26.297Z,47.37
2022-08-04T23:14:56.540Z,47.66
2022-08-04T23:17:27.244Z,47.82
2022-08-04T23:19:57.639Z,47.79
2022-08-04T23:22:41.835Z,48.01
2022-08-04T23:25:16.318Z,48.01
2022-08-04T23:27:50.883Z,48.12
2022-08-04T23:30:29.966Z,48.64
2022-08-04T23:32:59.535Z,48.30
2022-08-04T23:35:28.413Z,48.40
2022-08-04T23:37:59.799Z,48.72
2022-08-04T23:40:50.307Z,48.83
2022-08-04T23:43:19.626Z,48.94
2022-08-04T23:46:04.940Z,48.53
2022-08-04T23:48:39.052Z,48.38
2022-08-04T23:51:15.051Z,48.72
2022-08-04T23:54:02.173Z,49.04
2022-08-04T23:56:34.658Z,48.76
2022-08-04T23:59:04.698Z,49.06
